sensor_id;sensor_type;location;lat;lon;timestamp;pressure;altitude;pressure_sealevel;temperature;humidity
61324;BME280;47203;48.428;11.974;2023-01-16T00:02:00;95842.38;;;8.00;45.32
61324;BME280;47203;48.428;11.974;2023-01-16T00:04:05;95844.22;;;7.99;45.43
61324;BME280;47203;48.428;11.974;2023-01-16T00:06:10;95828.78;;;7.98;45.76
61324;BME280;47203;48.428;11.974;2023-01-16T00:08:15;95833.22;;;7.97;45.47
61324;BME280;47203;48.428;11.974;2023-01-16T00:10:19;95826.41;;;7.96;45.36
61324;BME280;47203;48.428;11.974;2023-01-16T00:12:27;95829.31;;;7.95;45.62
61324;BME280;47203;48.428;11.974;2023-01-16T00:14:31;95825.88;;;7.94;45.76
61324;BME280;47203;48.428;11.974;2023-01-16T00:16:36;95829.84;;;7.92;45.74
61324;BME280;47203;48.428;11.974;2023-01-16T00:18:41;95822.75;;;7.92;45.50
61324;BME280;47203;48.428;11.974;2023-01-16T00:20:46;95821.72;;;7.88;45.49
61324;BME280;47203;48.428;11.974;2023-01-16T00:22:51;95809.97;;;7.80;45.75
61324;BME280;47203;48.428;11.974;2023-01-16T00:24:56;95814.94;;;7.82;45.65
61324;BME280;47203;48.428;11.974;2023-01-16T00:27:01;95807.63;;;7.79;45.78
61324;BME280;47203;48.428;11.974;2023-01-16T00:29:08;95812.31;;;7.77;45.72
61324;BME280;47203;48.428;11.974;2023-01-16T00:31:13;95817.84;;;7.75;45.91
61324;BME280;47203;48.428;11.974;2023-01-16T00:33:18;95811.81;;;7.75;45.70
61324;BME280;47203;48.428;11.974;2023-01-16T00:35:23;95813.13;;;7.72;45.80
61324;BME280;47203;48.428;11.974;2023-01-16T00:37:28;95805.53;;;7.71;45.77
61324;BME280;47203;48.428;11.974;2023-01-16T00:39:34;95799.00;;;7.68;45.67
61324;BME280;47203;48.428;11.974;2023-01-16T00:41:40;95797.19;;;7.68;46.14
61324;BME280;47203;48.428;11.974;2023-01-16T00:43:45;95791.41;;;7.66;45.87
61324;BME280;47203;48.428;11.974;2023-01-16T00:45:52;95789.34;;;7.63;45.70
61324;BME280;47203;48.428;11.974;2023-01-16T00:47:58;95785.69;;;7.59;46.04
61324;BME280;47203;48.428;11.974;2023-01-16T00:50:03;95786.75;;;7.58;45.81
61324;BME280;47203;48.428;11.974;2023-01-16T00:52:08;95784.91;;;7.59;46.24
61324;BME280;47203;48.428;11.974;2023-01-16T00:54:13;95783.59;;;7.56;45.96
61324;BME280;47203;48.428;11.974;2023-01-16T00:56:17;95782.31;;;7.54;46.04
61324;BME280;47203;48.428;11.974;2023-01-16T00:58:22;95785.19;;;7.52;46.16
61324;BME280;47203;48.428;11.974;2023-01-16T01:00:27;95778.66;;;7.49;46.15
61324;BME280;47203;48.428;11.974;2023-01-16T01:02:35;95775.50;;;7.47;46.04
61324;BME280;47203;48.428;11.974;2023-01-16T01:04:40;95760.59;;;7.48;46.13
61324;BME280;47203;48.428;11.974;2023-01-16T01:06:44;95758.50;;;7.45;46.10
61324;BME280;47203;48.428;11.974;2023-01-16T01:08:50;95755.09;;;7.49;46.26
61324;BME280;47203;48.428;11.974;2023-01-16T01:10:55;95758.22;;;7.51;46.33
61324;BME280;47203;48.428;11.974;2023-01-16T01:13:00;95753.50;;;7.54;46.19
61324;BME280;47203;48.428;11.974;2023-01-16T01:15:06;95747.19;;;7.55;46.20
61324;BME280;47203;48.428;11.974;2023-01-16T01:17:11;95751.13;;;7.57;46.07
61324;BME280;47203;48.428;11.974;2023-01-16T01:19:18;95742.22;;;7.58;46.15
61324;BME280;47203;48.428;11.974;2023-01-16T01:21:23;95747.72;;;7.57;46.26
61324;BME280;47203;48.428;11.974;2023-01-16T01:23:28;95742.22;;;7.53;46.24
61324;BME280;47203;48.428;11.974;2023-01-16T01:25:33;95742.22;;;7.53;46.07
61324;BME280;47203;48.428;11.974;2023-01-16T01:27:38;95741.44;;;7.58;46.19
61324;BME280;47203;48.428;11.974;2023-01-16T01:29:42;95739.59;;;7.58;46.31
61324;BME280;47203;48.428;11.974;2023-01-16T01:31:47;95734.38;;;7.58;46.29
61324;BME280;47203;48.428;11.974;2023-01-16T01:33:52;95731.22;;;7.56;46.26
61324;BME280;47203;48.428;11.974;2023-01-16T01:36:00;95725.72;;;7.58;46.35
61324;BME280;47203;48.428;11.974;2023-01-16T01:38:05;95717.84;;;7.58;46.22
61324;BME280;47203;48.428;11.974;2023-01-16T01:40:10;95717.09;;;7.57;46.27
61324;BME280;47203;48.428;11.974;2023-01-16T01:42:15;95712.63;;;7.58;46.02
61324;BME280;47203;48.428;11.974;2023-01-16T01:44:48;95704.75;;;7.58;46.28
61324;BME280;47203;48.428;11.974;2023-01-16T01:46:53;95703.22;;;7.57;46.22
61324;BME280;47203;48.428;11.974;2023-01-16T01:49:02;95705.03;;;7.56;46.26
61324;BME280;47203;48.428;11.974;2023-01-16T01:51:14;95699.53;;;7.58;46.27
61324;BME280;47203;48.428;11.974;2023-01-16T01:53:25;95700.31;;;7.58;46.40
61324;BME280;47203;48.428;11.974;2023-01-16T01:55:32;95688.78;;;7.59;46.02
61324;BME280;47203;48.428;11.974;2023-01-16T01:57:39;95686.69;;;7.61;46.18
61324;BME280;47203;48.428;11.974;2023-01-16T01:59:49;95688.53;;;7.61;46.03
61324;BME280;47203;48.428;11.974;2023-01-16T02:01:56;95679.88;;;7.60;46.02
61324;BME280;47203;48.428;11.974;2023-01-16T02:04:03;95678.31;;;7.59;46.05
61324;BME280;47203;48.428;11.974;2023-01-16T02:06:15;95672.28;;;7.59;45.92
61324;BME280;47203;48.428;11.974;2023-01-16T02:08:25;95668.91;;;7.58;45.81
61324;BME280;47203;48.428;11.974;2023-01-16T02:10:37;95661.59;;;7.55;46.20
61324;BME280;47203;48.428;11.974;2023-01-16T02:12:43;95657.91;;;7.56;46.08
61324;BME280;47203;48.428;11.974;2023-01-16T02:14:49;95652.16;;;7.54;46.06
61324;BME280;47203;48.428;11.974;2023-01-16T02:16:59;95647.19;;;7.53;46.04
61324;BME280;47203;48.428;11.974;2023-01-16T02:19:26;95648.50;;;7.50;46.21
61324;BME280;47203;48.428;11.974;2023-01-16T02:24:27;95638.31;;;7.48;46.08
61324;BME280;47203;48.428;11.974;2023-01-16T02:27:13;95634.91;;;7.48;45.94
61324;BME280;47203;48.428;11.974;2023-01-16T02:34:49;95606.94;;;7.38;46.12
61324;BME280;47203;48.428;11.974;2023-01-16T02:37:03;95611.16;;;7.39;46.08
61324;BME280;47203;48.428;11.974;2023-01-16T02:39:17;95595.97;;;7.36;46.16
61324;BME280;47203;48.428;11.974;2023-01-16T02:41:31;95591.78;;;7.35;46.00
61324;BME280;47203;48.428;11.974;2023-01-16T02:43:49;95594.69;;;7.33;46.13
61324;BME280;47203;48.428;11.974;2023-01-16T02:46:02;95591.03;;;7.29;46.17
61324;BME280;47203;48.428;11.974;2023-01-16T02:48:21;95584.22;;;7.28;46.09
61324;BME280;47203;48.428;11.974;2023-01-16T02:50:32;95583.22;;;7.24;46.09
61324;BME280;47203;48.428;11.974;2023-01-16T02:52:45;95580.34;;;7.21;46.59
61324;BME280;47203;48.428;11.974;2023-01-16T02:54:55;95583.75;;;7.21;46.27
61324;BME280;47203;48.428;11.974;2023-01-16T02:57:08;95566.50;;;7.15;46.32
61324;BME280;47203;48.428;11.974;2023-01-16T02:59:16;95572.00;;;7.19;46.45
61324;BME280;47203;48.428;11.974;2023-01-16T03:01:22;95564.41;;;7.17;46.39
61324;BME280;47203;48.428;11.974;2023-01-16T03:03:42;95561.53;;;7.19;46.24
61324;BME280;47203;48.428;11.974;2023-01-16T03:05:57;95551.34;;;7.17;46.43
61324;BME280;47203;48.428;11.974;2023-01-16T03:08:17;95555.22;;;7.20;46.33
61324;BME280;47203;48.428;11.974;2023-01-16T03:10:52;95545.56;;;7.20;46.17
61324;BME280;47203;48.428;11.974;2023-01-16T03:13:12;95539.03;;;7.18;46.39
61324;BME280;47203;48.428;11.974;2023-01-16T03:15:27;95531.44;;;7.16;46.65
61324;BME280;47203;48.428;11.974;2023-01-16T03:17:40;95538.75;;;7.19;46.11
61324;BME280;47203;48.428;11.974;2023-01-16T03:20:05;95536.13;;;7.19;46.24
61324;BME280;47203;48.428;11.974;2023-01-16T03:22:17;95530.91;;;7.19;46.39
61324;BME280;47203;48.428;11.974;2023-01-16T03:24:32;95534.28;;;7.20;46.08
61324;BME280;47203;48.428;11.974;2023-01-16T03:26:42;95527.50;;;7.19;46.29
61324;BME280;47203;48.428;11.974;2023-01-16T03:28:57;95521.19;;;7.20;46.31
61324;BME280;47203;48.428;11.974;2023-01-16T03:31:11;95507.13;;;7.15;46.48
61324;BME280;47203;48.428;11.974;2023-01-16T03:33:26;95499.00;;;7.17;46.23
61324;BME280;47203;48.428;11.974;2023-01-16T03:35:39;95486.97;;;7.16;46.28
61324;BME280;47203;48.428;11.974;2023-01-16T03:37:49;95481.72;;;7.16;46.20
61324;BME280;47203;48.428;11.974;2023-01-16T03:39:59;95490.13;;;7.13;46.33
61324;BME280;47203;48.428;11.974;2023-01-16T03:42:09;95476.75;;;7.14;46.34
61324;BME280;47203;48.428;11.974;2023-01-16T03:44:21;95470.22;;;7.12;46.38
61324;BME280;47203;48.428;11.974;2023-01-16T03:46:33;95469.47;;;7.11;46.30
61324;BME280;47203;48.428;11.974;2023-01-16T03:48:46;95460.59;;;7.07;46.50
61324;BME280;47203;48.428;11.974;2023-01-16T03:50:57;95465.28;;;7.10;46.17
61324;BME280;47203;48.428;11.974;2023-01-16T03:53:08;95459.81;;;7.07;46.58
61324;BME280;47203;48.428;11.974;2023-01-16T03:55:17;95451.44;;;7.05;46.45
61324;BME280;47203;48.428;11.974;2023-01-16T03:57:25;95457.69;;;7.09;46.39
61324;BME280;47203;48.428;11.974;2023-01-16T03:59:30;95446.72;;;7.07;46.48
61324;BME280;47203;48.428;11.974;2023-01-16T04:01:39;95446.69;;;7.12;46.33
61324;BME280;47203;48.428;11.974;2023-01-16T04:03:56;95436.97;;;7.12;46.14
61324;BME280;47203;48.428;11.974;2023-01-16T04:06:10;95428.38;;;7.12;46.02
61324;BME280;47203;48.428;11.974;2023-01-16T04:08:19;95425.25;;;7.10;46.15
61324;BME280;47203;48.428;11.974;2023-01-16T04:10:28;95413.75;;;7.06;46.41
61324;BME280;47203;48.428;11.974;2023-01-16T04:12:36;95410.63;;;7.04;46.30
61324;BME280;47203;48.428;11.974;2023-01-16T04:14:43;95410.63;;;7.04;46.17
61324;BME280;47203;48.428;11.974;2023-01-16T04:16:49;95406.47;;;7.03;46.34
61324;BME280;47203;48.428;11.974;2023-01-16T04:18:55;95400.16;;;7.04;46.10
61324;BME280;47203;48.428;11.974;2023-01-16T04:21:06;95396.81;;;6.98;46.09
61324;BME280;47203;48.428;11.974;2023-01-16T04:23:12;95394.16;;;7.03;46.18
61324;BME280;47203;48.428;11.974;2023-01-16T04:25:18;95383.69;;;7.03;46.29
61324;BME280;47203;48.428;11.974;2023-01-16T04:27:24;95377.69;;;7.03;45.96
61324;BME280;47203;48.428;11.974;2023-01-16T04:29:29;95377.41;;;7.04;46.04
61324;BME280;47203;48.428;11.974;2023-01-16T04:31:34;95371.38;;;7.04;46.02
61324;BME280;47203;48.428;11.974;2023-01-16T04:33:39;95365.38;;;7.03;46.24
61324;BME280;47203;48.428;11.974;2023-01-16T04:35:44;95358.28;;;7.04;46.26
61324;BME280;47203;48.428;11.974;2023-01-16T04:37:51;95353.34;;;7.02;45.90
61324;BME280;47203;48.428;11.974;2023-01-16T04:39:56;95339.78;;;7.00;46.17
61324;BME280;47203;48.428;11.974;2023-01-16T04:42:01;95342.38;;;7.00;46.36
61324;BME280;47203;48.428;11.974;2023-01-16T04:44:07;95327.72;;;6.99;45.96
61324;BME280;47203;48.428;11.974;2023-01-16T04:46:12;95323.31;;;6.99;45.92
61324;BME280;47203;48.428;11.974;2023-01-16T04:48:17;95314.94;;;6.97;45.97
61324;BME280;47203;48.428;11.974;2023-01-16T04:50:22;95313.34;;;6.96;45.86
61324;BME280;47203;48.428;11.974;2023-01-16T04:52:29;95305.03;;;6.94;45.86
61324;BME280;47203;48.428;11.974;2023-01-16T04:54:36;95295.31;;;6.95;46.05
61324;BME280;47203;48.428;11.974;2023-01-16T04:56:41;95295.31;;;6.95;45.93
61324;BME280;47203;48.428;11.974;2023-01-16T04:58:46;95284.09;;;6.94;46.07
61324;BME280;47203;48.428;11.974;2023-01-16T05:00:53;95283.03;;;6.95;45.84
61324;BME280;47203;48.428;11.974;2023-01-16T05:02:58;95287.47;;;6.95;45.93
61324;BME280;47203;48.428;11.974;2023-01-16T05:05:04;95275.97;;;6.96;45.91
61324;BME280;47203;48.428;11.974;2023-01-16T05:07:09;95281.97;;;6.96;45.93
61324;BME280;47203;48.428;11.974;2023-01-16T05:09:14;95283.53;;;6.97;45.60
61324;BME280;47203;48.428;11.974;2023-01-16T05:11:21;95279.34;;;6.96;45.79
61324;BME280;47203;48.428;11.974;2023-01-16T05:13:26;95271.50;;;6.96;45.70
61324;BME280;47203;48.428;11.974;2023-01-16T05:15:31;95270.19;;;6.99;45.47
61324;BME280;47203;48.428;11.974;2023-01-16T05:17:36;95264.47;;;6.97;45.69
61324;BME280;47203;48.428;11.974;2023-01-16T05:19:40;95263.13;;;6.99;45.31
61324;BME280;47203;48.428;11.974;2023-01-16T05:21:45;95250.34;;;6.98;45.31
61324;BME280;47203;48.428;11.974;2023-01-16T05:23:50;95257.34;;;7.03;45.25
61324;BME280;47203;48.428;11.974;2023-01-16T05:25:55;95256.00;;;7.05;45.48
61324;BME280;47203;48.428;11.974;2023-01-16T05:28:03;95248.13;;;7.05;45.17
61324;BME280;47203;48.428;11.974;2023-01-16T05:30:09;95251.28;;;7.07;45.49
61324;BME280;47203;48.428;11.974;2023-01-16T05:32:14;95249.44;;;7.08;45.41
61324;BME280;47203;48.428;11.974;2023-01-16T05:34:18;95241.09;;;7.06;45.44
61324;BME280;47203;48.428;11.974;2023-01-16T05:36:23;95237.63;;;7.10;45.11
61324;BME280;47203;48.428;11.974;2023-01-16T05:38:28;95231.34;;;7.11;45.25
61324;BME280;47203;48.428;11.974;2023-01-16T05:40:33;95221.94;;;7.10;45.23
61324;BME280;47203;48.428;11.974;2023-01-16T05:42:38;95211.75;;;7.09;45.24
61324;BME280;47203;48.428;11.974;2023-01-16T05:44:45;95211.97;;;7.12;45.10
61324;BME280;47203;48.428;11.974;2023-01-16T05:46:50;95206.72;;;7.12;45.27
61324;BME280;47203;48.428;11.974;2023-01-16T05:48:55;95206.72;;;7.12;45.38
61324;BME280;47203;48.428;11.974;2023-01-16T05:51:00;95200.72;;;7.12;45.37
61324;BME280;47203;48.428;11.974;2023-01-16T05:53:05;95199.69;;;7.13;45.38
61324;BME280;47203;48.428;11.974;2023-01-16T05:55:10;95195.97;;;7.14;44.89
61324;BME280;47203;48.428;11.974;2023-01-16T05:57:14;95195.97;;;7.14;45.16
61324;BME280;47203;48.428;11.974;2023-01-16T05:59:19;95189.22;;;7.13;45.40
61324;BME280;47203;48.428;11.974;2023-01-16T06:01:26;95184.25;;;7.11;45.05
61324;BME280;47203;48.428;11.974;2023-01-16T06:03:31;95180.84;;;7.11;45.18
61324;BME280;47203;48.428;11.974;2023-01-16T06:05:36;95179.31;;;7.10;45.25
61324;BME280;47203;48.428;11.974;2023-01-16T06:07:41;95172.78;;;7.07;45.38
61324;BME280;47203;48.428;11.974;2023-01-16T06:09:46;95169.66;;;7.05;45.15
61324;BME280;47203;48.428;11.974;2023-01-16T06:11:51;95171.22;;;7.06;45.39
61324;BME280;47203;48.428;11.974;2023-01-16T06:13:56;95162.59;;;7.06;45.25
61324;BME280;47203;48.428;11.974;2023-01-16T06:16:05;95162.59;;;7.06;45.08
61324;BME280;47203;48.428;11.974;2023-01-16T06:18:13;95146.94;;;7.01;45.17
61324;BME280;47203;48.428;11.974;2023-01-16T06:20:18;95153.44;;;7.08;45.39
61324;BME280;47203;48.428;11.974;2023-01-16T06:22:23;95150.81;;;7.08;45.15
61324;BME280;47203;48.428;11.974;2023-01-16T06:24:28;95144.78;;;7.08;45.38
61324;BME280;47203;48.428;11.974;2023-01-16T06:26:33;95141.13;;;7.09;44.92
61324;BME280;47203;48.428;11.974;2023-01-16T06:28:38;95135.13;;;7.08;45.04
61324;BME280;47203;48.428;11.974;2023-01-16T06:30:43;95126.47;;;7.08;45.00
61324;BME280;47203;48.428;11.974;2023-01-16T06:32:49;95124.66;;;7.08;45.09
61324;BME280;47203;48.428;11.974;2023-01-16T06:34:57;95118.63;;;7.08;44.81
61324;BME280;47203;48.428;11.974;2023-01-16T06:37:02;95114.19;;;7.08;45.13
61324;BME280;47203;48.428;11.974;2023-01-16T06:39:07;95105.06;;;7.06;44.93
61324;BME280;47203;48.428;11.974;2023-01-16T06:41:12;95100.09;;;7.04;45.02
61324;BME280;47203;48.428;11.974;2023-01-16T06:43:17;95089.91;;;7.03;45.03
61324;BME280;47203;48.428;11.974;2023-01-16T06:45:22;95073.50;;;6.97;45.25
61324;BME280;47203;48.428;11.974;2023-01-16T06:47:26;95077.13;;;7.01;44.96
61324;BME280;47203;48.428;11.974;2023-01-16T06:49:32;95068.00;;;6.98;45.01
61324;BME280;47203;48.428;11.974;2023-01-16T06:51:40;95058.38;;;6.94;45.09
61324;BME280;47203;48.428;11.974;2023-01-16T06:53:45;95066.50;;;6.92;45.29
61324;BME280;47203;48.428;11.974;2023-01-16T06:55:50;95053.47;;;6.87;45.07
61324;BME280;47203;48.428;11.974;2023-01-16T06:57:55;95057.44;;;6.85;45.32
61324;BME280;47203;48.428;11.974;2023-01-16T07:00:00;95048.31;;;6.82;45.35
61324;BME280;47203;48.428;11.974;2023-01-16T07:02:05;95051.22;;;6.80;45.57
61324;BME280;47203;48.428;11.974;2023-01-16T07:04:10;95050.72;;;6.78;45.23
61324;BME280;47203;48.428;11.974;2023-01-16T07:06:15;95036.06;;;6.77;45.51
61324;BME280;47203;48.428;11.974;2023-01-16T07:08:23;95031.91;;;6.76;45.44
61324;BME280;47203;48.428;11.974;2023-01-16T07:10:28;95020.47;;;6.72;45.31
61324;BME280;47203;48.428;11.974;2023-01-16T07:12:33;95018.31;;;6.74;45.42
61324;BME280;47203;48.428;11.974;2023-01-16T07:14:38;95002.91;;;6.73;45.69
61324;BME280;47203;48.428;11.974;2023-01-16T07:16:55;95008.16;;;6.73;45.46
61324;BME280;47203;48.428;11.974;2023-01-16T07:19:12;95005.06;;;6.71;45.41
61324;BME280;47203;48.428;11.974;2023-01-16T07:21:32;94998.78;;;6.72;45.63
61324;BME280;47203;48.428;11.974;2023-01-16T07:23:54;94996.97;;;6.67;45.42
61324;BME280;47203;48.428;11.974;2023-01-16T07:26:02;94991.22;;;6.70;45.29
61324;BME280;47203;48.428;11.974;2023-01-16T07:28:09;94984.13;;;6.71;45.54
61324;BME280;47203;48.428;11.974;2023-01-16T07:30:15;94971.34;;;6.69;45.28
61324;BME280;47203;48.428;11.974;2023-01-16T07:32:20;94976.28;;;6.71;45.46
61324;BME280;47203;48.428;11.974;2023-01-16T07:34:25;94961.09;;;6.73;45.44
61324;BME280;47203;48.428;11.974;2023-01-16T07:36:30;94959.28;;;6.73;45.54
61324;BME280;47203;48.428;11.974;2023-01-16T07:38:35;94956.38;;;6.75;45.31
61324;BME280;47203;48.428;11.974;2023-01-16T07:40:42;94934.75;;;6.69;45.40
61324;BME280;47203;48.428;11.974;2023-01-16T07:42:49;94952.19;;;6.74;45.23
61324;BME280;47203;48.428;11.974;2023-01-16T07:44:55;94937.50;;;6.78;45.13
61324;BME280;47203;48.428;11.974;2023-01-16T07:47:00;94930.13;;;6.80;45.18
61324;BME280;47203;48.428;11.974;2023-01-16T07:49:05;94931.41;;;6.82;45.44
61324;BME280;47203;48.428;11.974;2023-01-16T07:51:10;94915.91;;;6.86;45.15
61324;BME280;47203;48.428;11.974;2023-01-16T07:53:15;94919.03;;;6.88;45.51
61324;BME280;47203;48.428;11.974;2023-01-16T07:55:23;94913.81;;;6.88;45.38
61324;BME280;47203;48.428;11.974;2023-01-16T07:57:30;94917.91;;;6.94;45.16
61324;BME280;47203;48.428;11.974;2023-01-16T07:59:35;94912.66;;;6.94;45.30
61324;BME280;47203;48.428;11.974;2023-01-16T08:01:40;94899.31;;;6.96;45.53
61324;BME280;47203;48.428;11.974;2023-01-16T08:03:47;94903.09;;;7.04;45.59
61324;BME280;47203;48.428;11.974;2023-01-16T08:05:54;94892.09;;;7.07;45.52
61324;BME280;47203;48.428;11.974;2023-01-16T08:07:59;94892.28;;;7.10;45.57
61324;BME280;47203;48.428;11.974;2023-01-16T08:10:05;94880.66;;;7.16;45.42
61324;BME280;47203;48.428;11.974;2023-01-16T08:12:10;94874.38;;;7.18;45.48
61324;BME280;47203;48.428;11.974;2023-01-16T08:14:17;94866.66;;;7.26;45.51
61324;BME280;47203;48.428;11.974;2023-01-16T08:16:22;94867.13;;;7.28;45.42
61324;BME280;47203;48.428;11.974;2023-01-16T08:18:27;94866.75;;;7.35;45.72
61324;BME280;47203;48.428;11.974;2023-01-16T08:20:31;94866.19;;;7.38;45.53
61324;BME280;47203;48.428;11.974;2023-01-16T08:22:41;94861.63;;;7.44;45.49
61324;BME280;47203;48.428;11.974;2023-01-16T08:24:46;94837.59;;;7.42;45.86
61324;BME280;47203;48.428;11.974;2023-01-16T08:26:51;94838.75;;;7.49;45.76
61324;BME280;47203;48.428;11.974;2023-01-16T08:28:56;94831.31;;;7.57;45.89
61324;BME280;47203;48.428;11.974;2023-01-16T08:31:07;94831.47;;;7.60;45.93
61324;BME280;47203;48.428;11.974;2023-01-16T08:33:13;94831.88;;;7.67;45.86
61324;BME280;47203;48.428;11.974;2023-01-16T08:35:18;94831.00;;;7.72;46.16
61324;BME280;47203;48.428;11.974;2023-01-16T08:37:23;94817.81;;;7.77;46.22
61324;BME280;47203;48.428;11.974;2023-01-16T08:39:28;94818.00;;;7.81;45.96
61324;BME280;47203;48.428;11.974;2023-01-16T08:41:33;94813.44;;;7.86;46.16
61324;BME280;47203;48.428;11.974;2023-01-16T08:43:51;94791.41;;;7.88;46.02
61324;BME280;47203;48.428;11.974;2023-01-16T08:46:16;94779.28;;;7.92;46.04
61324;BME280;47203;48.428;11.974;2023-01-16T08:48:36;94780.44;;;7.99;46.28
61324;BME280;47203;48.428;11.974;2023-01-16T08:50:53;94781.41;;;8.03;46.10
61324;BME280;47203;48.428;11.974;2023-01-16T08:53:10;94771.88;;;8.08;46.54
61324;BME280;47203;48.428;11.974;2023-01-16T08:55:15;94764.69;;;8.13;46.40
61324;BME280;47203;48.428;11.974;2023-01-16T08:57:20;94755.25;;;8.12;46.33
61324;BME280;47203;48.428;11.974;2023-01-16T08:59:25;94751.06;;;8.25;46.53
61324;BME280;47203;48.428;11.974;2023-01-16T09:01:38;94743.38;;;8.29;46.55
61324;BME280;47203;48.428;11.974;2023-01-16T09:03:44;94743.72;;;8.36;46.60
61324;BME280;47203;48.428;11.974;2023-01-16T09:05:49;94738.06;;;8.43;46.64
61324;BME280;47203;48.428;11.974;2023-01-16T09:07:54;94739.22;;;8.50;46.67
61324;BME280;47203;48.428;11.974;2023-01-16T09:09:59;94735.41;;;8.56;46.55
61324;BME280;47203;48.428;11.974;2023-01-16T09:12:04;94730.22;;;8.65;46.78
61324;BME280;47203;48.428;11.974;2023-01-16T09:14:22;94731.63;;;8.71;46.65
61324;BME280;47203;48.428;11.974;2023-01-16T09:16:27;94717.03;;;8.79;46.76
61324;BME280;47203;48.428;11.974;2023-01-16T09:18:35;94723.69;;;8.85;46.41
61324;BME280;47203;48.428;11.974;2023-01-16T09:20:40;94710.41;;;8.90;46.53
61324;BME280;47203;48.428;11.974;2023-01-16T09:22:45;94717.25;;;9.00;46.23
61324;BME280;47203;48.428;11.974;2023-01-16T09:24:49;94710.78;;;9.06;46.53
61324;BME280;47203;48.428;11.974;2023-01-16T09:26:54;94703.56;;;9.12;46.22
61324;BME280;47203;48.428;11.974;2023-01-16T09:28:59;94684.13;;;9.13;46.04
61324;BME280;47203;48.428;11.974;2023-01-16T09:31:04;94688.03;;;9.24;46.14
61324;BME280;47203;48.428;11.974;2023-01-16T09:33:09;94683.41;;;9.30;46.12
61324;BME280;47203;48.428;11.974;2023-01-16T09:35:17;94681.38;;;9.36;45.86
61324;BME280;47203;48.428;11.974;2023-01-16T09:37:21;94673.38;;;9.41;45.94
61324;BME280;47203;48.428;11.974;2023-01-16T09:39:26;94666.13;;;9.47;45.98
61324;BME280;47203;48.428;11.974;2023-01-16T09:41:35;94674.03;;;9.55;45.78
61324;BME280;47203;48.428;11.974;2023-01-16T09:43:58;94661.84;;;9.59;46.11
61324;BME280;47203;48.428;11.974;2023-01-16T09:46:10;94652.41;;;9.67;45.64
61324;BME280;47203;48.428;11.974;2023-01-16T09:48:24;94634.31;;;9.74;45.66
61324;BME280;47203;48.428;11.974;2023-01-16T09:50:39;94630.00;;;9.78;46.04
61324;BME280;47203;48.428;11.974;2023-01-16T09:52:47;94622.13;;;9.87;45.80
61324;BME280;47203;48.428;11.974;2023-01-16T09:55:13;94610.66;;;9.92;45.64
61324;BME280;47203;48.428;11.974;2023-01-16T09:57:33;94601.53;;;9.98;46.20
61324;BME280;47203;48.428;11.974;2023-01-16T09:59:53;94600.75;;;10.06;45.62
61324;BME280;47203;48.428;11.974;2023-01-16T10:02:07;94588.69;;;10.14;45.39
61324;BME280;47203;48.428;11.974;2023-01-16T10:04:18;94579.41;;;10.17;45.25
61324;BME280;47203;48.428;11.974;2023-01-16T10:06:30;94575.81;;;10.21;45.30
61324;BME280;47203;48.428;11.974;2023-01-16T10:08:41;94567.75;;;10.26;45.38
61324;BME280;47203;48.428;11.974;2023-01-16T10:10:55;94558.63;;;10.33;45.19
61324;BME280;47203;48.428;11.974;2023-01-16T10:15:36;94543.47;;;10.38;44.65
61324;BME280;47203;48.428;11.974;2023-01-16T10:17:53;94529.81;;;10.45;44.59
61324;BME280;47203;48.428;11.974;2023-01-16T10:20:12;94536.75;;;10.50;44.13
61324;BME280;47203;48.428;11.974;2023-01-16T10:22:36;94515.09;;;10.53;43.94
61324;BME280;47203;48.428;11.974;2023-01-16T10:24:54;94509.22;;;10.56;44.22
61324;BME280;47203;48.428;11.974;2023-01-16T10:27:10;94504.41;;;10.58;44.07
61324;BME280;47203;48.428;11.974;2023-01-16T10:29:21;94499.56;;;10.60;44.04
61324;BME280;47203;48.428;11.974;2023-01-16T10:31:32;94488.41;;;10.63;43.75
61324;BME280;47203;48.428;11.974;2023-01-16T10:33:43;94481.00;;;10.65;43.80
61324;BME280;47203;48.428;11.974;2023-01-16T10:35:55;94470.91;;;10.67;43.62
61324;BME280;47203;48.428;11.974;2023-01-16T10:38:21;94461.94;;;10.68;43.32
61324;BME280;47203;48.428;11.974;2023-01-16T10:40:32;94448.91;;;10.72;43.42
61324;BME280;47203;48.428;11.974;2023-01-16T10:42:39;94442.22;;;10.74;43.40
61324;BME280;47203;48.428;11.974;2023-01-16T10:45:09;94432.50;;;10.75;43.09
61324;BME280;47203;48.428;11.974;2023-01-16T10:47:31;94430.63;;;10.75;43.30
61324;BME280;47203;48.428;11.974;2023-01-16T10:49:49;94430.63;;;10.75;43.23
61324;BME280;47203;48.428;11.974;2023-01-16T10:51:55;94425.38;;;10.75;42.87
61324;BME280;47203;48.428;11.974;2023-01-16T10:54:04;94413.63;;;10.73;42.71
61324;BME280;47203;48.428;11.974;2023-01-16T10:56:09;94401.09;;;10.70;42.67
61324;BME280;47203;48.428;11.974;2023-01-16T10:58:24;94390.47;;;10.66;41.95
61324;BME280;47203;48.428;11.974;2023-01-16T11:00:32;94370.34;;;10.61;42.31
61324;BME280;47203;48.428;11.974;2023-01-16T11:02:41;94371.47;;;10.60;42.13
61324;BME280;47203;48.428;11.974;2023-01-16T11:04:47;94359.28;;;10.56;42.00
61324;BME280;47203;48.428;11.974;2023-01-16T11:07:12;94363.00;;;10.55;41.67
61324;BME280;47203;48.428;11.974;2023-01-16T11:09:20;94366.72;;;10.54;41.89
61324;BME280;47203;48.428;11.974;2023-01-16T11:11:28;94355.88;;;10.55;42.29
61324;BME280;47203;48.428;11.974;2023-01-16T11:13:45;94353.56;;;10.54;41.96
61324;BME280;47203;48.428;11.974;2023-01-16T11:16:05;94345.34;;;10.55;42.19
61324;BME280;47203;48.428;11.974;2023-01-16T11:18:35;94348.13;;;10.59;42.33
61324;BME280;47203;48.428;11.974;2023-01-16T11:20:40;94354.56;;;10.61;42.43
61324;BME280;47203;48.428;11.974;2023-01-16T11:22:54;94338.19;;;10.64;41.98
61324;BME280;47203;48.428;11.974;2023-01-16T11:25:05;94333.03;;;10.68;42.30
61324;BME280;47203;48.428;11.974;2023-01-16T11:27:16;94328.66;;;10.72;42.42
61324;BME280;47203;48.428;11.974;2023-01-16T11:29:26;94328.44;;;10.77;42.26
61324;BME280;47203;48.428;11.974;2023-01-16T11:31:33;94327.19;;;10.83;42.84
61324;BME280;47203;48.428;11.974;2023-01-16T11:33:41;94320.94;;;10.88;42.98